sensor_id;sensor_type;location;lat;lon;timestamp;P1;durP1;ratioP1;P2;durP2;ratioP2
40449;SDS011;41787;53.570;10.032;2023-05-15T00:00:42;7.82;;;3.85;;
40449;SDS011;41787;53.570;10.032;2023-05-15T00:03:08;6.30;;;3.75;;
40449;SDS011;41787;53.570;10.032;2023-05-15T00:05:35;14.68;;;3.70;;
40449;SDS011;41787;53.570;10.032;2023-05-15T00:08:01;8.90;;;4.00;;
40449;SDS011;41787;53.570;10.032;2023-05-15T00:10:27;6.57;;;4.00;;
40449;SDS011;41787;53.570;10.032;2023-05-15T00:12:53;8.27;;;4.70;;
40449;SDS011;41787;53.570;10.032;2023-05-15T00:15:19;6.32;;;3.78;;
40449;SDS011;41787;53.570;10.032;2023-05-15T00:17:45;8.63;;;4.10;;
40449;SDS011;41787;53.570;10.032;2023-05-15T00:20:11;7.97;;;4.40;;
40449;SDS011;41787;53.570;10.032;2023-05-15T00:22:37;11.00;;;4.28;;
40449;SDS011;41787;53.570;10.032;2023-05-15T00:25:04;5.95;;;3.83;;
40449;SDS011;41787;53.570;10.032;2023-05-15T00:27:30;5.72;;;3.95;;
40449;SDS011;41787;53.570;10.032;2023-05-15T00:29:56;11.63;;;4.50;;
40449;SDS011;41787;53.570;10.032;2023-05-15T00:32:22;9.88;;;4.82;;
40449;SDS011;41787;53.570;10.032;2023-05-15T00:34:47;10.85;;;4.32;;
40449;SDS011;41787;53.570;10.032;2023-05-15T00:37:13;7.75;;;3.75;;
40449;SDS011;41787;53.570;10.032;2023-05-15T00:39:40;6.95;;;4.32;;
40449;SDS011;41787;53.570;10.032;2023-05-15T00:42:06;15.13;;;4.57;;
40449;SDS011;41787;53.570;10.032;2023-05-15T00:44:32;6.15;;;4.35;;
40449;SDS011;41787;53.570;10.032;2023-05-15T00:46:59;12.52;;;4.75;;
40449;SDS011;41787;53.570;10.032;2023-05-15T00:49:25;9.20;;;4.60;;
40449;SDS011;41787;53.570;10.032;2023-05-15T00:51:53;10.63;;;4.72;;
40449;SDS011;41787;53.570;10.032;2023-05-15T00:54:19;9.43;;;4.22;;
40449;SDS011;41787;53.570;10.032;2023-05-15T00:56:45;7.43;;;5.00;;
40449;SDS011;41787;53.570;10.032;2023-05-15T00:59:12;12.57;;;4.47;;
40449;SDS011;41787;53.570;10.032;2023-05-15T01:01:38;9.45;;;4.68;;
40449;SDS011;41787;53.570;10.032;2023-05-15T01:04:04;7.63;;;4.53;;
40449;SDS011;41787;53.570;10.032;2023-05-15T01:06:30;10.73;;;5.13;;
40449;SDS011;41787;53.570;10.032;2023-05-15T01:08:58;10.07;;;4.95;;
40449;SDS011;41787;53.570;10.032;2023-05-15T01:11:26;6.40;;;4.45;;
40449;SDS011;41787;53.570;10.032;2023-05-15T01:14:00;8.27;;;5.00;;
40449;SDS011;41787;53.570;10.032;2023-05-15T01:16:26;8.95;;;5.05;;
40449;SDS011;41787;53.570;10.032;2023-05-15T01:18:52;8.63;;;4.80;;
40449;SDS011;41787;53.570;10.032;2023-05-15T01:24:07;8.65;;;4.78;;
40449;SDS011;41787;53.570;10.032;2023-05-15T01:26:42;8.57;;;4.93;;
40449;SDS011;41787;53.570;10.032;2023-05-15T01:29:15;11.52;;;4.57;;
40449;SDS011;41787;53.570;10.032;2023-05-15T01:31:44;7.97;;;4.95;;
40449;SDS011;41787;53.570;10.032;2023-05-15T01:34:10;10.30;;;5.35;;
40449;SDS011;41787;53.570;10.032;2023-05-15T01:36:50;8.35;;;4.90;;
40449;SDS011;41787;53.570;10.032;2023-05-15T01:39:19;9.27;;;5.22;;
40449;SDS011;41787;53.570;10.032;2023-05-15T01:41:52;9.23;;;5.18;;
40449;SDS011;41787;53.570;10.032;2023-05-15T01:44:29;10.83;;;5.13;;
40449;SDS011;41787;53.570;10.032;2023-05-15T01:46:58;7.25;;;5.00;;
40449;SDS011;41787;53.570;10.032;2023-05-15T01:49:26;8.85;;;4.93;;
40449;SDS011;41787;53.570;10.032;2023-05-15T01:52:00;7.90;;;5.43;;
40449;SDS011;41787;53.570;10.032;2023-05-15T01:54:29;6.97;;;5.15;;
40449;SDS011;41787;53.570;10.032;2023-05-15T01:56:56;8.13;;;4.90;;
40449;SDS011;41787;53.570;10.032;2023-05-15T01:59:23;11.82;;;5.65;;
40449;SDS011;41787;53.570;10.032;2023-05-15T02:01:50;7.95;;;5.38;;
40449;SDS011;41787;53.570;10.032;2023-05-15T02:04:16;7.60;;;5.20;;
40449;SDS011;41787;53.570;10.032;2023-05-15T02:06:42;8.18;;;4.90;;
40449;SDS011;41787;53.570;10.032;2023-05-15T02:09:08;6.38;;;4.85;;
40449;SDS011;41787;53.570;10.032;2023-05-15T02:11:35;7.20;;;5.10;;
40449;SDS011;41787;53.570;10.032;2023-05-15T02:14:01;11.15;;;4.75;;
40449;SDS011;41787;53.570;10.032;2023-05-15T02:16:29;7.88;;;5.00;;
40449;SDS011;41787;53.570;10.032;2023-05-15T02:18:55;8.18;;;5.85;;
40449;SDS011;41787;53.570;10.032;2023-05-15T02:21:21;8.93;;;5.13;;
40449;SDS011;41787;53.570;10.032;2023-05-15T02:23:47;9.57;;;5.35;;
40449;SDS011;41787;53.570;10.032;2023-05-15T02:28:46;10.25;;;4.85;;
40449;SDS011;41787;53.570;10.032;2023-05-15T02:31:51;8.30;;;5.18;;
40449;SDS011;41787;53.570;10.032;2023-05-15T02:34:17;7.07;;;5.07;;
40449;SDS011;41787;53.570;10.032;2023-05-15T02:36:48;9.50;;;5.68;;
40449;SDS011;41787;53.570;10.032;2023-05-15T02:39:16;7.90;;;5.25;;
40449;SDS011;41787;53.570;10.032;2023-05-15T02:41:43;10.98;;;5.72;;
40449;SDS011;41787;53.570;10.032;2023-05-15T02:44:10;7.53;;;5.22;;
40449;SDS011;41787;53.570;10.032;2023-05-15T02:46:37;9.40;;;5.00;;
40449;SDS011;41787;53.570;10.032;2023-05-15T02:49:03;10.95;;;5.63;;
40449;SDS011;41787;53.570;10.032;2023-05-15T02:51:29;10.00;;;5.53;;
40449;SDS011;41787;53.570;10.032;2023-05-15T02:53:55;6.05;;;5.18;;
40449;SDS011;41787;53.570;10.032;2023-05-15T02:56:25;10.43;;;5.78;;
40449;SDS011;41787;53.570;10.032;2023-05-15T02:58:51;9.15;;;5.80;;
40449;SDS011;41787;53.570;10.032;2023-05-15T03:01:17;9.73;;;5.68;;
40449;SDS011;41787;53.570;10.032;2023-05-15T03:03:43;10.82;;;6.00;;
40449;SDS011;41787;53.570;10.032;2023-05-15T03:06:09;9.43;;;6.05;;
40449;SDS011;41787;53.570;10.032;2023-05-15T03:08:35;10.35;;;6.43;;
40449;SDS011;41787;53.570;10.032;2023-05-15T03:11:01;11.50;;;5.25;;
40449;SDS011;41787;53.570;10.032;2023-05-15T03:13:27;10.15;;;6.18;;
40449;SDS011;41787;53.570;10.032;2023-05-15T03:15:52;10.85;;;6.00;;
40449;SDS011;41787;53.570;10.032;2023-05-15T03:18:18;7.63;;;5.95;;
40449;SDS011;41787;53.570;10.032;2023-05-15T03:20:46;8.27;;;6.05;;
40449;SDS011;41787;53.570;10.032;2023-05-15T03:23:12;8.50;;;6.45;;
40449;SDS011;41787;53.570;10.032;2023-05-15T03:25:38;8.90;;;6.65;;
40449;SDS011;41787;53.570;10.032;2023-05-15T03:28:04;12.02;;;7.05;;
40449;SDS011;41787;53.570;10.032;2023-05-15T03:30:30;10.20;;;5.82;;
40449;SDS011;41787;53.570;10.032;2023-05-15T03:32:56;11.05;;;6.32;;
40449;SDS011;41787;53.570;10.032;2023-05-15T03:35:22;9.50;;;6.78;;
40449;SDS011;41787;53.570;10.032;2023-05-15T03:37:49;9.68;;;7.07;;
40449;SDS011;41787;53.570;10.032;2023-05-15T03:40:15;10.18;;;7.15;;
40449;SDS011;41787;53.570;10.032;2023-05-15T03:42:41;9.35;;;6.57;;
40449;SDS011;41787;53.570;10.032;2023-05-15T03:45:07;13.10;;;7.63;;
40449;SDS011;41787;53.570;10.032;2023-05-15T03:47:33;10.15;;;6.80;;
40449;SDS011;41787;53.570;10.032;2023-05-15T03:49:59;11.43;;;7.28;;
40449;SDS011;41787;53.570;10.032;2023-05-15T03:52:25;12.60;;;7.20;;
40449;SDS011;41787;53.570;10.032;2023-05-15T03:54:51;17.02;;;8.30;;
40449;SDS011;41787;53.570;10.032;2023-05-15T03:57:17;13.98;;;7.68;;
40449;SDS011;41787;53.570;10.032;2023-05-15T03:59:43;11.68;;;8.02;;
40449;SDS011;41787;53.570;10.032;2023-05-15T04:02:09;10.10;;;7.55;;
40449;SDS011;41787;53.570;10.032;2023-05-15T04:04:35;14.75;;;9.15;;
40449;SDS011;41787;53.570;10.032;2023-05-15T04:07:02;12.75;;;8.32;;
40449;SDS011;41787;53.570;10.032;2023-05-15T04:09:28;18.35;;;8.57;;
40449;SDS011;41787;53.570;10.032;2023-05-15T04:11:54;14.25;;;8.35;;
40449;SDS011;41787;53.570;10.032;2023-05-15T04:14:20;12.18;;;7.57;;
40449;SDS011;41787;53.570;10.032;2023-05-15T04:16:46;12.90;;;8.48;;
40449;SDS011;41787;53.570;10.032;2023-05-15T04:19:12;13.82;;;8.38;;
40449;SDS011;41787;53.570;10.032;2023-05-15T04:21:38;10.77;;;8.50;;
40449;SDS011;41787;53.570;10.032;2023-05-15T04:24:05;16.98;;;9.48;;
40449;SDS011;41787;53.570;10.032;2023-05-15T04:26:31;12.25;;;8.13;;
40449;SDS011;41787;53.570;10.032;2023-05-15T04:28:58;13.95;;;8.70;;
40449;SDS011;41787;53.570;10.032;2023-05-15T04:31:24;13.52;;;8.45;;
40449;SDS011;41787;53.570;10.032;2023-05-15T04:33:51;12.10;;;8.82;;
40449;SDS011;41787;53.570;10.032;2023-05-15T04:36:17;10.10;;;7.85;;
40449;SDS011;41787;53.570;10.032;2023-05-15T04:38:44;13.23;;;9.15;;
40449;SDS011;41787;53.570;10.032;2023-05-15T04:41:10;12.50;;;8.50;;
40449;SDS011;41787;53.570;10.032;2023-05-15T04:43:36;13.23;;;8.63;;
40449;SDS011;41787;53.570;10.032;2023-05-15T04:46:02;14.68;;;8.73;;
40449;SDS011;41787;53.570;10.032;2023-05-15T04:48:28;15.27;;;8.50;;
40449;SDS011;41787;53.570;10.032;2023-05-15T04:50:54;13.18;;;8.23;;
40449;SDS011;41787;53.570;10.032;2023-05-15T04:53:20;12.15;;;8.20;;
40449;SDS011;41787;53.570;10.032;2023-05-15T04:55:46;14.90;;;8.43;;
40449;SDS011;41787;53.570;10.032;2023-05-15T04:58:15;10.48;;;7.78;;
40449;SDS011;41787;53.570;10.032;2023-05-15T05:00:41;10.50;;;7.70;;
40449;SDS011;41787;53.570;10.032;2023-05-15T05:03:07;14.07;;;8.50;;
40449;SDS011;41787;53.570;10.032;2023-05-15T05:05:33;13.30;;;8.32;;
40449;SDS011;41787;53.570;10.032;2023-05-15T05:07:58;11.23;;;8.10;;
40449;SDS011;41787;53.570;10.032;2023-05-15T05:10:25;12.50;;;8.27;;
40449;SDS011;41787;53.570;10.032;2023-05-15T05:12:51;11.40;;;8.40;;
40449;SDS011;41787;53.570;10.032;2023-05-15T05:15:18;10.10;;;7.80;;
40449;SDS011;41787;53.570;10.032;2023-05-15T05:17:44;13.02;;;8.07;;
40449;SDS011;41787;53.570;10.032;2023-05-15T05:20:10;12.15;;;7.40;;
40449;SDS011;41787;53.570;10.032;2023-05-15T05:22:37;13.98;;;8.15;;
40449;SDS011;41787;53.570;10.032;2023-05-15T05:25:04;11.27;;;7.88;;
40449;SDS011;41787;53.570;10.032;2023-05-15T05:27:30;10.32;;;6.90;;
40449;SDS011;41787;53.570;10.032;2023-05-15T05:29:56;13.02;;;6.75;;
40449;SDS011;41787;53.570;10.032;2023-05-15T05:32:22;13.50;;;6.78;;
40449;SDS011;41787;53.570;10.032;2023-05-15T05:34:48;11.88;;;7.07;;
40449;SDS011;41787;53.570;10.032;2023-05-15T05:37:14;15.82;;;6.55;;
40449;SDS011;41787;53.570;10.032;2023-05-15T05:39:40;9.05;;;6.57;;
40449;SDS011;41787;53.570;10.032;2023-05-15T05:42:06;13.95;;;7.97;;
40449;SDS011;41787;53.570;10.032;2023-05-15T05:44:32;14.10;;;7.18;;
40449;SDS011;41787;53.570;10.032;2023-05-15T05:46:58;18.98;;;7.30;;
40449;SDS011;41787;53.570;10.032;2023-05-15T05:49:24;10.50;;;6.95;;
40449;SDS011;41787;53.570;10.032;2023-05-15T05:51:50;9.82;;;6.50;;
40449;SDS011;41787;53.570;10.032;2023-05-15T05:54:16;18.90;;;7.35;;
40449;SDS011;41787;53.570;10.032;2023-05-15T05:56:42;9.15;;;6.72;;
40449;SDS011;41787;53.570;10.032;2023-05-15T05:59:08;12.77;;;6.38;;
40449;SDS011;41787;53.570;10.032;2023-05-15T06:01:35;13.32;;;6.22;;
40449;SDS011;41787;53.570;10.032;2023-05-15T06:04:01;11.77;;;6.10;;
40449;SDS011;41787;53.570;10.032;2023-05-15T06:06:27;11.13;;;7.13;;
40449;SDS011;41787;53.570;10.032;2023-05-15T06:08:53;8.48;;;5.60;;
40449;SDS011;41787;53.570;10.032;2023-05-15T06:11:19;9.73;;;5.65;;
40449;SDS011;41787;53.570;10.032;2023-05-15T06:13:45;8.77;;;5.13;;
40449;SDS011;41787;53.570;10.032;2023-05-15T06:16:11;11.48;;;5.07;;
40449;SDS011;41787;53.570;10.032;2023-05-15T06:18:37;11.70;;;5.38;;
40449;SDS011;41787;53.570;10.032;2023-05-15T06:21:03;7.38;;;5.25;;
40449;SDS011;41787;53.570;10.032;2023-05-15T06:23:29;23.63;;;5.05;;
40449;SDS011;41787;53.570;10.032;2023-05-15T06:25:55;8.18;;;5.13;;
40449;SDS011;41787;53.570;10.032;2023-05-15T06:28:21;6.40;;;4.20;;
40449;SDS011;41787;53.570;10.032;2023-05-15T06:30:47;7.80;;;4.05;;
40449;SDS011;41787;53.570;10.032;2023-05-15T06:33:12;5.18;;;3.80;;
40449;SDS011;41787;53.570;10.032;2023-05-15T06:35:38;5.72;;;3.97;;
40449;SDS011;41787;53.570;10.032;2023-05-15T06:38:05;4.72;;;3.25;;
40449;SDS011;41787;53.570;10.032;2023-05-15T06:40:31;7.43;;;3.38;;
40449;SDS011;41787;53.570;10.032;2023-05-15T06:42:57;8.05;;;3.35;;
40449;SDS011;41787;53.570;10.032;2023-05-15T06:45:23;7.85;;;3.65;;
40449;SDS011;41787;53.570;10.032;2023-05-15T06:47:48;7.53;;;3.72;;
40449;SDS011;41787;53.570;10.032;2023-05-15T06:50:14;6.30;;;3.47;;
40449;SDS011;41787;53.570;10.032;2023-05-15T06:52:40;11.48;;;3.17;;
40449;SDS011;41787;53.570;10.032;2023-05-15T06:55:06;4.95;;;3.15;;
40449;SDS011;41787;53.570;10.032;2023-05-15T06:57:32;9.13;;;2.53;;
40449;SDS011;41787;53.570;10.032;2023-05-15T06:59:58;6.10;;;2.83;;
40449;SDS011;41787;53.570;10.032;2023-05-15T07:02:24;7.68;;;3.38;;
40449;SDS011;41787;53.570;10.032;2023-05-15T07:04:50;5.53;;;3.00;;
40449;SDS011;41787;53.570;10.032;2023-05-15T07:07:16;7.43;;;3.05;;
40449;SDS011;41787;53.570;10.032;2023-05-15T07:09:42;4.43;;;2.25;;
40449;SDS011;41787;53.570;10.032;2023-05-15T07:12:12;4.60;;;2.15;;
40449;SDS011;41787;53.570;10.032;2023-05-15T07:14:38;6.93;;;2.50;;
40449;SDS011;41787;53.570;10.032;2023-05-15T07:17:04;3.80;;;2.72;;
40449;SDS011;41787;53.570;10.032;2023-05-15T07:19:30;3.63;;;2.47;;
40449;SDS011;41787;53.570;10.032;2023-05-15T07:21:56;7.55;;;2.50;;
40449;SDS011;41787;53.570;10.032;2023-05-15T07:24:22;4.65;;;2.20;;
40449;SDS011;41787;53.570;10.032;2023-05-15T07:26:48;3.65;;;2.20;;
40449;SDS011;41787;53.570;10.032;2023-05-15T07:29:14;4.07;;;2.15;;
40449;SDS011;41787;53.570;10.032;2023-05-15T07:31:40;5.72;;;1.88;;
40449;SDS011;41787;53.570;10.032;2023-05-15T07:34:08;3.20;;;1.65;;
40449;SDS011;41787;53.570;10.032;2023-05-15T07:36:34;3.50;;;1.83;;
40449;SDS011;41787;53.570;10.032;2023-05-15T07:39:00;3.05;;;2.03;;
40449;SDS011;41787;53.570;10.032;2023-05-15T07:41:26;5.25;;;2.30;;
40449;SDS011;41787;53.570;10.032;2023-05-15T07:43:54;2.50;;;1.70;;
40449;SDS011;41787;53.570;10.032;2023-05-15T07:46:20;4.25;;;1.88;;
40449;SDS011;41787;53.570;10.032;2023-05-15T07:48:46;2.78;;;1.60;;
40449;SDS011;41787;53.570;10.032;2023-05-15T07:51:12;5.75;;;2.00;;
40449;SDS011;41787;53.570;10.032;2023-05-15T07:53:38;3.00;;;1.83;;
40449;SDS011;41787;53.570;10.032;2023-05-15T07:56:04;7.25;;;2.60;;
40449;SDS011;41787;53.570;10.032;2023-05-15T07:58:30;6.40;;;1.85;;
40449;SDS011;41787;53.570;10.032;2023-05-15T08:00:57;3.35;;;1.80;;
40449;SDS011;41787;53.570;10.032;2023-05-15T08:03:23;5.35;;;1.80;;
40449;SDS011;41787;53.570;10.032;2023-05-15T08:05:49;3.15;;;1.42;;
40449;SDS011;41787;53.570;10.032;2023-05-15T08:08:15;3.13;;;1.52;;
40449;SDS011;41787;53.570;10.032;2023-05-15T08:10:41;2.25;;;1.50;;
40449;SDS011;41787;53.570;10.032;2023-05-15T08:13:07;5.82;;;1.80;;
40449;SDS011;41787;53.570;10.032;2023-05-15T08:15:33;1.92;;;1.30;;
40449;SDS011;41787;53.570;10.032;2023-05-15T08:17:59;4.50;;;1.92;;
40449;SDS011;41787;53.570;10.032;2023-05-15T08:20:25;7.90;;;1.50;;
40449;SDS011;41787;53.570;10.032;2023-05-15T08:22:51;5.40;;;1.65;;
40449;SDS011;41787;53.570;10.032;2023-05-15T08:25:17;2.40;;;1.73;;
40449;SDS011;41787;53.570;10.032;2023-05-15T08:27:43;3.53;;;1.63;;
40449;SDS011;41787;53.570;10.032;2023-05-15T08:30:09;6.65;;;1.95;;
40449;SDS011;41787;53.570;10.032;2023-05-15T08:32:35;4.15;;;1.85;;
40449;SDS011;41787;53.570;10.032;2023-05-15T08:35:01;3.55;;;1.13;;
40449;SDS011;41787;53.570;10.032;2023-05-15T08:37:27;2.20;;;1.42;;
40449;SDS011;41787;53.570;10.032;2023-05-15T08:39:53;2.75;;;1.70;;
40449;SDS011;41787;53.570;10.032;2023-05-15T08:42:32;2.58;;;1.13;;
40449;SDS011;41787;53.570;10.032;2023-05-15T08:45:00;10.07;;;1.70;;
40449;SDS011;41787;53.570;10.032;2023-05-15T08:47:27;5.32;;;1.88;;
40449;SDS011;41787;53.570;10.032;2023-05-15T08:50:01;3.70;;;1.95;;
40449;SDS011;41787;53.570;10.032;2023-05-15T08:52:29;5.47;;;1.92;;
40449;SDS011;41787;53.570;10.032;2023-05-15T08:54:56;1.80;;;1.27;;
40449;SDS011;41787;53.570;10.032;2023-05-15T08:57:23;2.30;;;1.63;;
40449;SDS011;41787;53.570;10.032;2023-05-15T08:59:49;6.38;;;1.25;;
40449;SDS011;41787;53.570;10.032;2023-05-15T09:02:15;1.83;;;1.48;;
40449;SDS011;41787;53.570;10.032;2023-05-15T09:04:42;2.53;;;1.70;;
40449;SDS011;41787;53.570;10.032;2023-05-15T09:07:08;2.97;;;1.20;;
40449;SDS011;41787;53.570;10.032;2023-05-15T09:09:35;3.42;;;1.75;;
40449;SDS011;41787;53.570;10.032;2023-05-15T09:12:02;3.33;;;2.10;;
40449;SDS011;41787;53.570;10.032;2023-05-15T09:14:28;4.32;;;1.65;;
40449;SDS011;41787;53.570;10.032;2023-05-15T09:16:54;3.45;;;1.27;;
40449;SDS011;41787;53.570;10.032;2023-05-15T09:19:21;3.30;;;1.65;;
40449;SDS011;41787;53.570;10.032;2023-05-15T09:21:47;7.35;;;1.48;;
40449;SDS011;41787;53.570;10.032;2023-05-15T09:26:43;2.73;;;1.60;;
40449;SDS011;41787;53.570;10.032;2023-05-15T09:29:09;3.47;;;1.63;;
40449;SDS011;41787;53.570;10.032;2023-05-15T09:31:36;3.45;;;1.70;;
40449;SDS011;41787;53.570;10.032;2023-05-15T09:34:02;2.90;;;1.50;;
40449;SDS011;41787;53.570;10.032;2023-05-15T09:36:33;4.25;;;1.75;;
40449;SDS011;41787;53.570;10.032;2023-05-15T09:38:59;4.55;;;1.83;;
40449;SDS011;41787;53.570;10.032;2023-05-15T09:41:26;1.88;;;1.25;;
40449;SDS011;41787;53.570;10.032;2023-05-15T09:43:52;1.00;;;0.80;;
40449;SDS011;41787;53.570;10.032;2023-05-15T09:46:20;3.28;;;1.52;;
40449;SDS011;41787;53.570;10.032;2023-05-15T09:48:46;3.10;;;1.70;;
40449;SDS011;41787;53.570;10.032;2023-05-15T09:51:16;2.50;;;1.20;;
40449;SDS011;41787;53.570;10.032;2023-05-15T09:53:45;2.95;;;1.65;;
40449;SDS011;41787;53.570;10.032;2023-05-15T09:58:38;1.40;;;1.30;;
40449;SDS011;41787;53.570;10.032;2023-05-15T10:01:18;3.13;;;1.50;;
40449;SDS011;41787;53.570;10.032;2023-05-15T10:03:45;1.77;;;1.15;;
40449;SDS011;41787;53.570;10.032;2023-05-15T10:06:21;1.90;;;1.23;;
40449;SDS011;41787;53.570;10.032;2023-05-15T10:08:50;5.85;;;1.60;;
40449;SDS011;41787;53.570;10.032;2023-05-15T10:11:17;2.63;;;1.08;;
40449;SDS011;41787;53.570;10.032;2023-05-15T10:13:43;4.25;;;1.40;;
40449;SDS011;41787;53.570;10.032;2023-05-15T10:16:10;5.13;;;1.80;;
40449;SDS011;41787;53.570;10.032;2023-05-15T10:18:36;2.05;;;1.45;;
40449;SDS011;41787;53.570;10.032;2023-05-15T10:21:05;4.35;;;1.70;;
40449;SDS011;41787;53.570;10.032;2023-05-15T10:23:32;2.33;;;1.23;;
40449;SDS011;41787;53.570;10.032;2023-05-15T10:26:01;1.98;;;1.23;;
40449;SDS011;41787;53.570;10.032;2023-05-15T10:28:28;3.03;;;1.33;;
40449;SDS011;41787;53.570;10.032;2023-05-15T10:30:55;2.95;;;1.50;;
40449;SDS011;41787;53.570;10.032;2023-05-15T10:33:25;2.17;;;1.30;;
40449;SDS011;41787;53.570;10.032;2023-05-15T10:35:51;3.47;;;1.52;;
40449;SDS011;41787;53.570;10.032;2023-05-15T10:38:18;4.15;;;1.70;;
40449;SDS011;41787;53.570;10.032;2023-05-15T10:40:44;2.40;;;1.30;;
40449;SDS011;41787;53.570;10.032;2023-05-15T10:43:10;2.58;;;1.38;;
40449;SDS011;41787;53.570;10.032;2023-05-15T10:45:37;3.97;;;1.70;;
40449;SDS011;41787;53.570;10.032;2023-05-15T10:48:03;3.28;;;1.50;;
40449;SDS011;41787;53.570;10.032;2023-05-15T10:50:31;7.50;;;2.05;;
40449;SDS011;41787;53.570;10.032;2023-05-15T10:52:57;3.92;;;1.55;;
40449;SDS011;41787;53.570;10.032;2023-05-15T10:55:24;2.35;;;1.20;;
40449;SDS011;41787;53.570;10.032;2023-05-15T10:57:50;1.48;;;1.05;;
40449;SDS011;41787;53.570;10.032;2023-05-15T11:02:48;1.80;;;1.00;;
40449;SDS011;41787;53.570;10.032;2023-05-15T11:05:17;5.68;;;1.65;;
40449;SDS011;41787;53.570;10.032;2023-05-15T11:07:43;2.33;;;1.25;;
40449;SDS011;41787;53.570;10.032;2023-05-15T11:12:54;2.28;;;1.20;;
40449;SDS011;41787;53.570;10.032;2023-05-15T11:15:20;4.60;;;1.80;;
40449;SDS011;41787;53.570;10.032;2023-05-15T11:18:02;2.90;;;1.30;;
40449;SDS011;41787;53.570;10.032;2023-05-15T11:21:28;2.72;;;1.30;;
40449;SDS011;41787;53.570;10.032;2023-05-15T11:23:24;5.10;;;2.05;;
40449;SDS011;41787;53.570;10.032;2023-05-15T11:25:54;3.22;;;1.70;;
40449;SDS011;41787;53.570;10.032;2023-05-15T11:28:22;3.88;;;1.50;;
40449;SDS011;41787;53.570;10.032;2023-05-15T11:30:49;2.90;;;1.67;;
40449;SDS011;41787;53.570;10.032;2023-05-15T11:33:15;3.67;;;1.30;;
40449;SDS011;41787;53.570;10.032;2023-05-15T11:35:42;6.30;;;1.95;;
40449;SDS011;41787;53.570;10.032;2023-05-15T11:38:16;1.90;;;1.30;;
40449;SDS011;41787;53.570;10.032;2023-05-15T11:40:45;1.45;;;1.13;;
40449;SDS011;41787;53.570;10.032;2023-05-15T11:43:24;5.03;;;1.55;;
40449;SDS011;41787;53.570;10.032;2023-05-15T11:45:51;6.88;;;1.75;;
40449;SDS011;41787;53.570;10.032;2023-05-15T11:48:20;1.10;;;0.68;;
40449;SDS011;41787;53.570;10.032;2023-05-15T11:50:46;3.00;;;1.15;;
40449;SDS011;41787;53.570;10.032;2023-05-15T11:53:12;3.33;;;1.48;;
40449;SDS011;41787;53.570;10.032;2023-05-15T11:55:39;10.02;;;1.48;;
40449;SDS011;41787;53.570;10.032;2023-05-15T11:58:15;4.10;;;1.40;;
40449;SDS011;41787;53.570;10.032;2023-05-15T12:00:42;2.67;;;1.65;;
40449;SDS011;41787;53.570;10.032;2023-05-15T12:03:22;2.83;;;1.45;;
40449;SDS011;41787;53.570;10.032;2023-05-15T12:08:15;3.35;;;1.30;;
40449;SDS011;41787;53.570;10.032;2023-05-15T12:10:41;2.53;;;1.65;;
40449;SDS011;41787;53.570;10.032;2023-05-15T12:13:08;3.85;;;1.40;;
40449;SDS011;41787;53.570;10.032;2023-05-15T12:15:35;3.22;;;1.48;;
40449;SDS011;41787;53.570;10.032;2023-05-15T12:18:02;1.77;;;1.33;;
40449;SDS011;41787;53.570;10.032;2023-05-15T12:20:31;9.88;;;2.08;;
40449;SDS011;41787;53.570;10.032;2023-05-15T12:22:57;2.60;;;2.00;;
40449;SDS011;41787;53.570;10.032;2023-05-15T12:25:23;2.85;;;1.58;;
40449;SDS011;41787;53.570;10.032;2023-05-15T12:27:49;7.75;;;2.20;;
40449;SDS011;41787;53.570;10.032;2023-05-15T12:30:15;3.05;;;1.38;;
40449;SDS011;41787;53.570;10.032;2023-05-15T12:32:42;3.78;;;1.52;;
40449;SDS011;41787;53.570;10.032;2023-05-15T12:35:08;4.25;;;1.88;;
40449;SDS011;41787;53.570;10.032;2023-05-15T12:37:36;2.33;;;1.83;;
40449;SDS011;41787;53.570;10.032;2023-05-15T12:40:02;4.78;;;1.88;;
40449;SDS011;41787;53.570;10.032;2023-05-15T12:42:40;5.05;;;1.73;;
40449;SDS011;41787;53.570;10.032;2023-05-15T12:47:38;14.75;;;2.42;;
40449;SDS011;41787;53.570;10.032;2023-05-15T12:50:25;19.55;;;3.17;;
40449;SDS011;41787;53.570;10.032;2023-05-15T12:52:55;4.97;;;2.55;;
40449;SDS011;41787;53.570;10.032;2023-05-15T12:55:25;4.72;;;1.30;;
40449;SDS011;41787;53.570;10.032;2023-05-15T12:57:55;5.68;;;2.08;;
40449;SDS011;41787;53.570;10.032;2023-05-15T13:00:24;2.42;;;1.95;;
40449;SDS011;41787;53.570;10.032;2023-05-15T13:02:52;5.32;;;3.40;;
40449;SDS011;41787;53.570;10.032;2023-05-15T13:05:18;10.18;;;5.45;;
40449;SDS011;41787;53.570;10.032;2023-05-15T13:07:44;6.95;;;4.22;;
40449;SDS011;41787;53.570;10.032;2023-05-15T13:10:10;11.45;;;5.38;;
40449;SDS011;41787;53.570;10.032;2023-05-15T13:12:43;7.50;;;4.95;;
40449;SDS011;41787;53.570;10.032;2023-05-15T13:15:23;8.48;;;5.68;;
40449;SDS011;41787;53.570;10.032;2023-05-15T13:17:53;9.88;;;5.15;;
40449;SDS011;41787;53.570;10.032;2023-05-15T13:20:22;6.47;;;4.10;;
40449;SDS011;41787;53.570;10.032;2023-05-15T13:22:48;9.43;;;4.55;;
40449;SDS011;41787;53.570;10.032;2023-05-15T13:25:18;8.20;;;3.35;;
40449;SDS011;41787;53.570;10.032;2023-05-15T13:27:45;8.15;;;5.00;;
40449;SDS011;41787;53.570;10.032;2023-05-15T13:30:11;8.63;;;5.68;;
40449;SDS011;41787;53.570;10.032;2023-05-15T13:32:37;8.10;;;5.28;;
40449;SDS011;41787;53.570;10.032;2023-05-15T13:35:03;5.30;;;3.88;;
40449;SDS011;41787;53.570;10.032;2023-05-15T13:37:29;9.32;;;6.13;;
40449;SDS011;41787;53.570;10.032;2023-05-15T13:39:55;9.63;;;5.20;;
40449;SDS011;41787;53.570;10.032;2023-05-15T13:42:21;7.18;;;3.97;;
40449;SDS011;41787;53.570;10.032;2023-05-15T13:44:47;12.88;;;4.15;;
40449;SDS011;41787;53.570;10.032;2023-05-15T13:47:15;8.05;;;5.47;;
40449;SDS011;41787;53.570;10.032;2023-05-15T13:49:44;8.85;;;6.25;;
40449;SDS011;41787;53.570;10.032;2023-05-15T13:52:10;11.52;;;6.07;;
40449;SDS011;41787;53.570;10.032;2023-05-15T13:54:36;6.38;;;4.00;;
40449;SDS011;41787;53.570;10.032;2023-05-15T13:57:02;10.48;;;4.50;;
40449;SDS011;41787;53.570;10.032;2023-05-15T13:59:28;6.55;;;4.03;;
40449;SDS011;41787;53.570;10.032;2023-05-15T14:01:54;7.60;;;5.50;;
40449;SDS011;41787;53.570;10.032;2023-05-15T14:04:20;5.32;;;4.00;;
40449;SDS011;41787;53.570;10.032;2023-05-15T14:06:45;10.95;;;5.53;;
40449;SDS011;41787;53.570;10.032;2023-05-15T14:09:11;9.73;;;5.90;;
40449;SDS011;41787;53.570;10.032;2023-05-15T14:11:37;12.32;;;6.53;;
40449;SDS011;41787;53.570;10.032;2023-05-15T14:14:03;11.00;;;6.35;;
40449;SDS011;41787;53.570;10.032;2023-05-15T14:16:29;9.00;;;5.55;;
40449;SDS011;41787;53.570;10.032;2023-05-15T14:18:55;14.27;;;5.07;;
40449;SDS011;41787;53.570;10.032;2023-05-15T14:21:22;12.00;;;7.57;;
40449;SDS011;41787;53.570;10.032;2023-05-15T14:23:48;9.85;;;4.22;;
40449;SDS011;41787;53.570;10.032;2023-05-15T14:26:14;9.60;;;6.45;;
40449;SDS011;41787;53.570;10.032;2023-05-15T14:28:40;16.20;;;7.80;;
40449;SDS011;41787;53.570;10.032;2023-05-15T14:31:06;11.18;;;5.40;;
40449;SDS011;41787;53.570;10.032;2023-05-15T14:33:32;23.02;;;7.22;;
40449;SDS011;41787;53.570;10.032;2023-05-15T14:35:58;5.78;;;4.93;;
40449;SDS011;41787;53.570;10.032;2023-05-15T14:38:28;16.65;;;6.18;;
40449;SDS011;41787;53.570;10.032;2023-05-15T14:40:54;12.48;;;7.47;;
40449;SDS011;41787;53.570;10.032;2023-05-15T14:43:20;9.85;;;6.70;;
40449;SDS011;41787;53.570;10.032;2023-05-15T14:45:48;11.88;;;6.63;;
40449;SDS011;41787;53.570;10.032;2023-05-15T14:48:15;8.15;;;6.32;;
40449;SDS011;41787;53.570;10.032;2023-05-15T14:50:41;9.20;;;7.10;;